sensor_id;sensor_type;location;lat;lon;timestamp;P1;durP1;ratioP1;P2;durP2;ratioP2
69207;SDS011;70114;47.690;8.898;2023-12-20T00:01:15;5.90;;;1.20;;
69207;SDS011;70114;47.690;8.898;2023-12-20T00:03:41;7.00;;;1.27;;
69207;SDS011;70114;47.690;8.898;2023-12-20T00:06:06;5.87;;;1.10;;
69207;SDS011;70114;47.690;8.898;2023-12-20T00:08:32;5.60;;;1.10;;
69207;SDS011;70114;47.690;8.898;2023-12-20T00:10:57;5.47;;;1.00;;
69207;SDS011;70114;47.690;8.898;2023-12-20T00:13:22;5.75;;;1.10;;
69207;SDS011;70114;47.690;8.898;2023-12-20T00:15:48;5.27;;;0.87;;
69207;SDS011;70114;47.690;8.898;2023-12-20T00:18:13;5.70;;;1.03;;
69207;SDS011;70114;47.690;8.898;2023-12-20T00:20:39;5.83;;;1.17;;
69207;SDS011;70114;47.690;8.898;2023-12-20T00:23:04;7.10;;;1.30;;
69207;SDS011;70114;47.690;8.898;2023-12-20T00:25:30;4.95;;;1.00;;
69207;SDS011;70114;47.690;8.898;2023-12-20T00:27:55;6.37;;;1.50;;
69207;SDS011;70114;47.690;8.898;2023-12-20T00:30:20;5.60;;;1.20;;
69207;SDS011;70114;47.690;8.898;2023-12-20T00:32:46;5.37;;;1.13;;
69207;SDS011;70114;47.690;8.898;2023-12-20T00:35:15;5.95;;;1.25;;
69207;SDS011;70114;47.690;8.898;2023-12-20T00:37:44;6.00;;;1.30;;
69207;SDS011;70114;47.690;8.898;2023-12-20T00:40:09;6.73;;;1.20;;
69207;SDS011;70114;47.690;8.898;2023-12-20T00:42:35;5.88;;;1.48;;
69207;SDS011;70114;47.690;8.898;2023-12-20T00:45:03;6.03;;;1.25;;
69207;SDS011;70114;47.690;8.898;2023-12-20T00:47:30;6.93;;;1.50;;
69207;SDS011;70114;47.690;8.898;2023-12-20T00:49:56;5.67;;;1.40;;
69207;SDS011;70114;47.690;8.898;2023-12-20T00:52:21;6.65;;;1.30;;
69207;SDS011;70114;47.690;8.898;2023-12-20T00:54:48;6.60;;;1.47;;
69207;SDS011;70114;47.690;8.898;2023-12-20T00:57:13;6.50;;;1.33;;
69207;SDS011;70114;47.690;8.898;2023-12-20T00:59:39;7.13;;;1.58;;
69207;SDS011;70114;47.690;8.898;2023-12-20T01:02:04;6.60;;;1.60;;
69207;SDS011;70114;47.690;8.898;2023-12-20T01:04:29;6.83;;;2.00;;
69207;SDS011;70114;47.690;8.898;2023-12-20T01:06:55;7.57;;;1.90;;
69207;SDS011;70114;47.690;8.898;2023-12-20T01:09:20;6.80;;;1.93;;
69207;SDS011;70114;47.690;8.898;2023-12-20T01:11:48;7.78;;;1.80;;
69207;SDS011;70114;47.690;8.898;2023-12-20T01:14:14;6.55;;;1.92;;
69207;SDS011;70114;47.690;8.898;2023-12-20T01:16:39;6.33;;;1.73;;
69207;SDS011;70114;47.690;8.898;2023-12-20T01:19:05;6.33;;;1.60;;
69207;SDS011;70114;47.690;8.898;2023-12-20T01:21:30;6.43;;;1.83;;
69207;SDS011;70114;47.690;8.898;2023-12-20T01:23:55;8.63;;;2.00;;
69207;SDS011;70114;47.690;8.898;2023-12-20T01:26:21;7.23;;;2.10;;
69207;SDS011;70114;47.690;8.898;2023-12-20T01:28:46;7.07;;;2.00;;
69207;SDS011;70114;47.690;8.898;2023-12-20T01:31:12;7.73;;;2.20;;
69207;SDS011;70114;47.690;8.898;2023-12-20T01:33:37;7.80;;;2.30;;
69207;SDS011;70114;47.690;8.898;2023-12-20T01:36:03;7.23;;;1.73;;
69207;SDS011;70114;47.690;8.898;2023-12-20T01:38:29;6.57;;;2.08;;
69207;SDS011;70114;47.690;8.898;2023-12-20T01:40:54;7.20;;;2.00;;
69207;SDS011;70114;47.690;8.898;2023-12-20T01:43:19;7.97;;;2.17;;
69207;SDS011;70114;47.690;8.898;2023-12-20T01:45:45;7.93;;;2.08;;
69207;SDS011;70114;47.690;8.898;2023-12-20T01:48:11;8.47;;;2.40;;
69207;SDS011;70114;47.690;8.898;2023-12-20T01:50:37;7.53;;;2.17;;
69207;SDS011;70114;47.690;8.898;2023-12-20T01:53:03;9.38;;;2.90;;
69207;SDS011;70114;47.690;8.898;2023-12-20T01:55:31;7.47;;;2.37;;
69207;SDS011;70114;47.690;8.898;2023-12-20T01:57:59;8.65;;;2.65;;
69207;SDS011;70114;47.690;8.898;2023-12-20T02:00:26;8.40;;;2.85;;
69207;SDS011;70114;47.690;8.898;2023-12-20T02:02:54;8.35;;;2.58;;
69207;SDS011;70114;47.690;8.898;2023-12-20T02:05:20;9.60;;;2.55;;
69207;SDS011;70114;47.690;8.898;2023-12-20T02:07:47;9.30;;;2.80;;
69207;SDS011;70114;47.690;8.898;2023-12-20T02:10:12;8.63;;;2.50;;
69207;SDS011;70114;47.690;8.898;2023-12-20T02:12:38;9.77;;;2.70;;
69207;SDS011;70114;47.690;8.898;2023-12-20T02:15:04;9.60;;;3.07;;
69207;SDS011;70114;47.690;8.898;2023-12-20T02:17:30;9.77;;;3.35;;
69207;SDS011;70114;47.690;8.898;2023-12-20T02:19:57;10.35;;;3.50;;
69207;SDS011;70114;47.690;8.898;2023-12-20T02:22:22;10.67;;;3.20;;
69207;SDS011;70114;47.690;8.898;2023-12-20T02:24:47;10.07;;;3.60;;
69207;SDS011;70114;47.690;8.898;2023-12-20T02:27:13;9.20;;;3.03;;
69207;SDS011;70114;47.690;8.898;2023-12-20T02:29:42;10.70;;;3.13;;
69207;SDS011;70114;47.690;8.898;2023-12-20T02:32:08;9.90;;;3.20;;
69207;SDS011;70114;47.690;8.898;2023-12-20T02:34:33;9.40;;;2.90;;
69207;SDS011;70114;47.690;8.898;2023-12-20T02:36:59;10.27;;;3.37;;
69207;SDS011;70114;47.690;8.898;2023-12-20T02:39:24;8.90;;;3.30;;
69207;SDS011;70114;47.690;8.898;2023-12-20T02:41:49;9.53;;;3.30;;
69207;SDS011;70114;47.690;8.898;2023-12-20T02:44:15;10.70;;;3.03;;
69207;SDS011;70114;47.690;8.898;2023-12-20T02:46:40;9.80;;;3.00;;
69207;SDS011;70114;47.690;8.898;2023-12-20T02:49:06;9.52;;;3.10;;
69207;SDS011;70114;47.690;8.898;2023-12-20T02:51:31;11.07;;;3.50;;
69207;SDS011;70114;47.690;8.898;2023-12-20T02:53:57;9.77;;;3.22;;
69207;SDS011;70114;47.690;8.898;2023-12-20T02:56:22;11.63;;;3.20;;
69207;SDS011;70114;47.690;8.898;2023-12-20T02:58:48;9.67;;;3.20;;
69207;SDS011;70114;47.690;8.898;2023-12-20T03:01:13;10.53;;;3.03;;
69207;SDS011;70114;47.690;8.898;2023-12-20T03:03:39;9.85;;;3.40;;
69207;SDS011;70114;47.690;8.898;2023-12-20T03:06:04;11.27;;;3.60;;
69207;SDS011;70114;47.690;8.898;2023-12-20T03:08:30;10.77;;;3.43;;
69207;SDS011;70114;47.690;8.898;2023-12-20T03:10:55;11.00;;;3.87;;
69207;SDS011;70114;47.690;8.898;2023-12-20T03:13:20;9.67;;;3.43;;
69207;SDS011;70114;47.690;8.898;2023-12-20T03:15:46;9.35;;;3.30;;
69207;SDS011;70114;47.690;8.898;2023-12-20T03:18:11;9.67;;;3.37;;
69207;SDS011;70114;47.690;8.898;2023-12-20T03:20:37;11.23;;;3.60;;
69207;SDS011;70114;47.690;8.898;2023-12-20T03:23:02;10.47;;;4.13;;
69207;SDS011;70114;47.690;8.898;2023-12-20T03:25:28;12.00;;;3.78;;
69207;SDS011;70114;47.690;8.898;2023-12-20T03:27:54;11.90;;;3.77;;
69207;SDS011;70114;47.690;8.898;2023-12-20T03:30:19;11.80;;;3.80;;
69207;SDS011;70114;47.690;8.898;2023-12-20T03:32:45;12.00;;;3.23;;
69207;SDS011;70114;47.690;8.898;2023-12-20T03:35:11;11.05;;;3.75;;
69207;SDS011;70114;47.690;8.898;2023-12-20T03:37:37;11.93;;;4.23;;
69207;SDS011;70114;47.690;8.898;2023-12-20T03:40:02;11.10;;;3.83;;
69207;SDS011;70114;47.690;8.898;2023-12-20T03:42:28;10.85;;;3.90;;
69207;SDS011;70114;47.690;8.898;2023-12-20T03:44:53;11.63;;;3.93;;
69207;SDS011;70114;47.690;8.898;2023-12-20T03:47:19;11.20;;;3.63;;
69207;SDS011;70114;47.690;8.898;2023-12-20T03:49:44;10.68;;;3.45;;
69207;SDS011;70114;47.690;8.898;2023-12-20T03:52:09;11.97;;;4.30;;
69207;SDS011;70114;47.690;8.898;2023-12-20T03:54:35;11.00;;;3.67;;
69207;SDS011;70114;47.690;8.898;2023-12-20T03:57:00;10.20;;;3.63;;
69207;SDS011;70114;47.690;8.898;2023-12-20T03:59:26;11.20;;;4.30;;
69207;SDS011;70114;47.690;8.898;2023-12-20T04:01:51;11.88;;;4.10;;
69207;SDS011;70114;47.690;8.898;2023-12-20T04:04:17;11.83;;;4.07;;
69207;SDS011;70114;47.690;8.898;2023-12-20T04:06:42;12.67;;;4.43;;
69207;SDS011;70114;47.690;8.898;2023-12-20T04:09:08;12.45;;;4.30;;
69207;SDS011;70114;47.690;8.898;2023-12-20T04:11:37;11.63;;;3.80;;
69207;SDS011;70114;47.690;8.898;2023-12-20T04:14:02;11.63;;;4.05;;
69207;SDS011;70114;47.690;8.898;2023-12-20T04:16:29;11.00;;;3.88;;
69207;SDS011;70114;47.690;8.898;2023-12-20T04:18:55;11.60;;;3.80;;
69207;SDS011;70114;47.690;8.898;2023-12-20T04:21:21;12.38;;;4.47;;
69207;SDS011;70114;47.690;8.898;2023-12-20T04:23:47;9.87;;;3.97;;
69207;SDS011;70114;47.690;8.898;2023-12-20T04:26:12;10.30;;;4.03;;
69207;SDS011;70114;47.690;8.898;2023-12-20T04:28:37;12.13;;;4.60;;
69207;SDS011;70114;47.690;8.898;2023-12-20T04:31:03;10.83;;;4.47;;
69207;SDS011;70114;47.690;8.898;2023-12-20T04:33:28;11.82;;;4.13;;
69207;SDS011;70114;47.690;8.898;2023-12-20T04:35:53;11.73;;;4.23;;
69207;SDS011;70114;47.690;8.898;2023-12-20T04:38:19;11.17;;;4.13;;
69207;SDS011;70114;47.690;8.898;2023-12-20T04:40:44;11.33;;;4.53;;
69207;SDS011;70114;47.690;8.898;2023-12-20T04:43:10;12.37;;;4.23;;
69207;SDS011;70114;47.690;8.898;2023-12-20T04:45:35;13.07;;;4.80;;
69207;SDS011;70114;47.690;8.898;2023-12-20T04:48:01;12.95;;;4.88;;
69207;SDS011;70114;47.690;8.898;2023-12-20T04:50:27;12.63;;;4.20;;
69207;SDS011;70114;47.690;8.898;2023-12-20T04:52:53;12.80;;;4.60;;
69207;SDS011;70114;47.690;8.898;2023-12-20T04:55:18;12.40;;;4.67;;
69207;SDS011;70114;47.690;8.898;2023-12-20T04:57:44;11.77;;;4.47;;
69207;SDS011;70114;47.690;8.898;2023-12-20T05:00:09;13.13;;;4.83;;
69207;SDS011;70114;47.690;8.898;2023-12-20T05:02:35;12.13;;;4.18;;
69207;SDS011;70114;47.690;8.898;2023-12-20T05:05:01;13.98;;;5.32;;
69207;SDS011;70114;47.690;8.898;2023-12-20T05:07:27;12.50;;;4.23;;
69207;SDS011;70114;47.690;8.898;2023-12-20T05:09:52;13.90;;;4.70;;
69207;SDS011;70114;47.690;8.898;2023-12-20T05:12:18;12.43;;;4.65;;
69207;SDS011;70114;47.690;8.898;2023-12-20T05:14:43;14.17;;;4.77;;
69207;SDS011;70114;47.690;8.898;2023-12-20T05:17:09;14.40;;;5.47;;
69207;SDS011;70114;47.690;8.898;2023-12-20T05:19:34;12.20;;;4.40;;
69207;SDS011;70114;47.690;8.898;2023-12-20T05:22:00;14.93;;;5.43;;
69207;SDS011;70114;47.690;8.898;2023-12-20T05:24:26;11.90;;;5.00;;
69207;SDS011;70114;47.690;8.898;2023-12-20T05:26:52;12.67;;;5.03;;
69207;SDS011;70114;47.690;8.898;2023-12-20T05:29:17;13.83;;;5.40;;
69207;SDS011;70114;47.690;8.898;2023-12-20T05:31:43;11.63;;;5.00;;
69207;SDS011;70114;47.690;8.898;2023-12-20T05:34:08;12.83;;;5.07;;
69207;SDS011;70114;47.690;8.898;2023-12-20T05:36:33;11.03;;;4.00;;
69207;SDS011;70114;47.690;8.898;2023-12-20T05:38:59;13.73;;;4.50;;
69207;SDS011;70114;47.690;8.898;2023-12-20T05:41:24;11.93;;;4.37;;
69207;SDS011;70114;47.690;8.898;2023-12-20T05:43:49;11.80;;;3.80;;
69207;SDS011;70114;47.690;8.898;2023-12-20T05:46:15;11.60;;;4.28;;
69207;SDS011;70114;47.690;8.898;2023-12-20T05:48:41;11.83;;;4.27;;
69207;SDS011;70114;47.690;8.898;2023-12-20T05:51:06;10.17;;;3.20;;
69207;SDS011;70114;47.690;8.898;2023-12-20T05:53:31;10.77;;;4.07;;
69207;SDS011;70114;47.690;8.898;2023-12-20T05:55:57;11.70;;;4.30;;
69207;SDS011;70114;47.690;8.898;2023-12-20T05:58:22;11.73;;;4.43;;
69207;SDS011;70114;47.690;8.898;2023-12-20T06:00:47;12.90;;;4.40;;
69207;SDS011;70114;47.690;8.898;2023-12-20T06:03:13;11.23;;;4.10;;
69207;SDS011;70114;47.690;8.898;2023-12-20T06:05:39;12.40;;;4.40;;
69207;SDS011;70114;47.690;8.898;2023-12-20T06:08:04;12.37;;;4.23;;
69207;SDS011;70114;47.690;8.898;2023-12-20T06:10:30;13.90;;;4.30;;
69207;SDS011;70114;47.690;8.898;2023-12-20T06:12:55;12.73;;;4.97;;
69207;SDS011;70114;47.690;8.898;2023-12-20T06:15:21;12.88;;;4.68;;
69207;SDS011;70114;47.690;8.898;2023-12-20T06:17:47;12.53;;;4.80;;
69207;SDS011;70114;47.690;8.898;2023-12-20T06:20:12;12.13;;;4.77;;
69207;SDS011;70114;47.690;8.898;2023-12-20T06:22:38;12.45;;;4.50;;
69207;SDS011;70114;47.690;8.898;2023-12-20T06:25:03;14.43;;;5.33;;
69207;SDS011;70114;47.690;8.898;2023-12-20T06:27:29;14.10;;;5.22;;
69207;SDS011;70114;47.690;8.898;2023-12-20T06:29:55;12.77;;;5.03;;
69207;SDS011;70114;47.690;8.898;2023-12-20T06:32:21;11.03;;;4.57;;
69207;SDS011;70114;47.690;8.898;2023-12-20T06:34:48;11.95;;;4.65;;
69207;SDS011;70114;47.690;8.898;2023-12-20T06:37:13;13.97;;;5.10;;
69207;SDS011;70114;47.690;8.898;2023-12-20T06:39:40;13.82;;;4.78;;
69207;SDS011;70114;47.690;8.898;2023-12-20T06:42:05;14.10;;;4.93;;
69207;SDS011;70114;47.690;8.898;2023-12-20T06:44:31;13.07;;;5.07;;
69207;SDS011;70114;47.690;8.898;2023-12-20T06:46:56;13.45;;;4.88;;
69207;SDS011;70114;47.690;8.898;2023-12-20T06:49:22;13.23;;;5.32;;
69207;SDS011;70114;47.690;8.898;2023-12-20T06:51:48;11.30;;;4.50;;
69207;SDS011;70114;47.690;8.898;2023-12-20T06:54:13;12.67;;;5.00;;
69207;SDS011;70114;47.690;8.898;2023-12-20T06:56:39;12.60;;;4.65;;
69207;SDS011;70114;47.690;8.898;2023-12-20T06:59:04;13.47;;;5.17;;
69207;SDS011;70114;47.690;8.898;2023-12-20T07:01:29;14.63;;;5.50;;
69207;SDS011;70114;47.690;8.898;2023-12-20T07:03:55;15.73;;;5.73;;
69207;SDS011;70114;47.690;8.898;2023-12-20T07:06:20;13.90;;;5.27;;
69207;SDS011;70114;47.690;8.898;2023-12-20T07:08:45;13.27;;;4.80;;
69207;SDS011;70114;47.690;8.898;2023-12-20T07:11:11;13.53;;;5.13;;
69207;SDS011;70114;47.690;8.898;2023-12-20T07:13:36;13.77;;;5.30;;
69207;SDS011;70114;47.690;8.898;2023-12-20T07:16:02;11.93;;;4.70;;
69207;SDS011;70114;47.690;8.898;2023-12-20T07:18:27;12.43;;;4.80;;
69207;SDS011;70114;47.690;8.898;2023-12-20T07:20:53;13.43;;;4.97;;
69207;SDS011;70114;47.690;8.898;2023-12-20T07:23:19;13.40;;;5.07;;
69207;SDS011;70114;47.690;8.898;2023-12-20T07:25:45;12.82;;;4.68;;
69207;SDS011;70114;47.690;8.898;2023-12-20T07:28:10;13.43;;;4.50;;
69207;SDS011;70114;47.690;8.898;2023-12-20T07:30:36;14.57;;;4.63;;
69207;SDS011;70114;47.690;8.898;2023-12-20T07:33:02;13.30;;;4.68;;
69207;SDS011;70114;47.690;8.898;2023-12-20T07:35:28;13.82;;;4.38;;
69207;SDS011;70114;47.690;8.898;2023-12-20T07:37:53;15.23;;;4.97;;
69207;SDS011;70114;47.690;8.898;2023-12-20T07:40:18;13.83;;;4.47;;
69207;SDS011;70114;47.690;8.898;2023-12-20T07:42:44;13.10;;;4.83;;
69207;SDS011;70114;47.690;8.898;2023-12-20T07:45:09;12.73;;;4.40;;
69207;SDS011;70114;47.690;8.898;2023-12-20T07:47:38;13.60;;;4.33;;
69207;SDS011;70114;47.690;8.898;2023-12-20T07:50:04;12.65;;;4.63;;
69207;SDS011;70114;47.690;8.898;2023-12-20T07:52:29;15.32;;;4.55;;
69207;SDS011;70114;47.690;8.898;2023-12-20T07:54:55;16.13;;;5.07;;
69207;SDS011;70114;47.690;8.898;2023-12-20T07:57:20;12.43;;;4.67;;
69207;SDS011;70114;47.690;8.898;2023-12-20T07:59:46;14.52;;;4.85;;
69207;SDS011;70114;47.690;8.898;2023-12-20T08:02:12;11.37;;;3.97;;
69207;SDS011;70114;47.690;8.898;2023-12-20T08:04:37;13.33;;;4.47;;
69207;SDS011;70114;47.690;8.898;2023-12-20T08:07:03;12.38;;;4.13;;
69207;SDS011;70114;47.690;8.898;2023-12-20T08:09:29;11.60;;;3.70;;
69207;SDS011;70114;47.690;8.898;2023-12-20T08:11:54;11.75;;;3.80;;
69207;SDS011;70114;47.690;8.898;2023-12-20T08:14:20;11.07;;;3.73;;
69207;SDS011;70114;47.690;8.898;2023-12-20T08:16:46;11.38;;;3.70;;
69207;SDS011;70114;47.690;8.898;2023-12-20T08:19:11;10.50;;;3.73;;
69207;SDS011;70114;47.690;8.898;2023-12-20T08:21:37;9.47;;;3.23;;
69207;SDS011;70114;47.690;8.898;2023-12-20T08:24:02;10.33;;;3.27;;
69207;SDS011;70114;47.690;8.898;2023-12-20T08:26:28;10.73;;;3.40;;
69207;SDS011;70114;47.690;8.898;2023-12-20T08:28:54;10.63;;;3.37;;
69207;SDS011;70114;47.690;8.898;2023-12-20T08:31:19;9.57;;;3.37;;
69207;SDS011;70114;47.690;8.898;2023-12-20T08:33:46;9.05;;;3.00;;
69207;SDS011;70114;47.690;8.898;2023-12-20T08:36:12;8.90;;;3.00;;
69207;SDS011;70114;47.690;8.898;2023-12-20T08:38:38;10.35;;;3.42;;
69207;SDS011;70114;47.690;8.898;2023-12-20T08:41:04;9.47;;;3.10;;
69207;SDS011;70114;47.690;8.898;2023-12-20T08:43:33;9.38;;;3.22;;
69207;SDS011;70114;47.690;8.898;2023-12-20T08:45:59;9.65;;;3.20;;
69207;SDS011;70114;47.690;8.898;2023-12-20T08:48:25;8.70;;;2.53;;
69207;SDS011;70114;47.690;8.898;2023-12-20T08:50:50;10.40;;;3.00;;
69207;SDS011;70114;47.690;8.898;2023-12-20T08:53:17;8.35;;;2.40;;
69207;SDS011;70114;47.690;8.898;2023-12-20T08:55:43;9.10;;;2.67;;
69207;SDS011;70114;47.690;8.898;2023-12-20T08:58:09;8.30;;;2.43;;
69207;SDS011;70114;47.690;8.898;2023-12-20T09:00:34;7.77;;;2.53;;
69207;SDS011;70114;47.690;8.898;2023-12-20T09:03:01;8.77;;;2.53;;
69207;SDS011;70114;47.690;8.898;2023-12-20T09:05:27;9.38;;;2.80;;
69207;SDS011;70114;47.690;8.898;2023-12-20T09:07:53;9.40;;;2.47;;
69207;SDS011;70114;47.690;8.898;2023-12-20T09:10:18;8.33;;;2.57;;
69207;SDS011;70114;47.690;8.898;2023-12-20T09:12:50;7.97;;;2.60;;
69207;SDS011;70114;47.690;8.898;2023-12-20T09:15:16;7.72;;;2.30;;
69207;SDS011;70114;47.690;8.898;2023-12-20T09:17:42;8.20;;;2.33;;
69207;SDS011;70114;47.690;8.898;2023-12-20T09:20:08;9.57;;;2.55;;
69207;SDS011;70114;47.690;8.898;2023-12-20T09:22:34;9.13;;;2.70;;
69207;SDS011;70114;47.690;8.898;2023-12-20T09:25:00;9.03;;;2.60;;
69207;SDS011;70114;47.690;8.898;2023-12-20T09:27:26;8.60;;;2.45;;
69207;SDS011;70114;47.690;8.898;2023-12-20T09:29:52;8.48;;;2.67;;
69207;SDS011;70114;47.690;8.898;2023-12-20T09:32:18;7.60;;;2.40;;
69207;SDS011;70114;47.690;8.898;2023-12-20T09:34:45;7.18;;;2.35;;
69207;SDS011;70114;47.690;8.898;2023-12-20T09:37:11;8.20;;;2.20;;
69207;SDS011;70114;47.690;8.898;2023-12-20T09:39:36;7.77;;;2.50;;
69207;SDS011;70114;47.690;8.898;2023-12-20T09:42:03;8.10;;;2.33;;
69207;SDS011;70114;47.690;8.898;2023-12-20T09:44:29;8.32;;;2.35;;
69207;SDS011;70114;47.690;8.898;2023-12-20T09:46:56;9.18;;;2.17;;
69207;SDS011;70114;47.690;8.898;2023-12-20T09:49:22;8.50;;;2.00;;
69207;SDS011;70114;47.690;8.898;2023-12-20T09:51:48;6.95;;;2.10;;
69207;SDS011;70114;47.690;8.898;2023-12-20T09:54:19;6.72;;;1.98;;
69207;SDS011;70114;47.690;8.898;2023-12-20T09:56:45;7.78;;;2.42;;
69207;SDS011;70114;47.690;8.898;2023-12-20T09:59:11;8.23;;;2.30;;
69207;SDS011;70114;47.690;8.898;2023-12-20T10:01:38;8.17;;;2.33;;
69207;SDS011;70114;47.690;8.898;2023-12-20T10:04:07;8.70;;;2.42;;
69207;SDS011;70114;47.690;8.898;2023-12-20T10:06:37;7.78;;;2.20;;
69207;SDS011;70114;47.690;8.898;2023-12-20T10:09:03;7.13;;;1.80;;
69207;SDS011;70114;47.690;8.898;2023-12-20T10:11:29;6.65;;;1.95;;
69207;SDS011;70114;47.690;8.898;2023-12-20T10:13:59;7.07;;;2.20;;
69207;SDS011;70114;47.690;8.898;2023-12-20T10:16:26;7.07;;;2.03;;
69207;SDS011;70114;47.690;8.898;2023-12-20T10:18:52;7.47;;;1.90;;
69207;SDS011;70114;47.690;8.898;2023-12-20T10:21:18;8.17;;;2.37;;
69207;SDS011;70114;47.690;8.898;2023-12-20T10:23:45;10.05;;;3.22;;
69207;SDS011;70114;47.690;8.898;2023-12-20T10:26:15;7.78;;;2.10;;
69207;SDS011;70114;47.690;8.898;2023-12-20T10:28:45;8.10;;;2.65;;
69207;SDS011;70114;47.690;8.898;2023-12-20T10:31:10;7.47;;;2.53;;
69207;SDS011;70114;47.690;8.898;2023-12-20T10:33:36;8.67;;;2.53;;
69207;SDS011;70114;47.690;8.898;2023-12-20T10:36:01;6.95;;;2.28;;
69207;SDS011;70114;47.690;8.898;2023-12-20T10:38:27;7.07;;;2.00;;
69207;SDS011;70114;47.690;8.898;2023-12-20T10:40:56;8.02;;;2.30;;
69207;SDS011;70114;47.690;8.898;2023-12-20T10:43:24;6.97;;;1.92;;
69207;SDS011;70114;47.690;8.898;2023-12-20T10:45:51;6.97;;;2.08;;
69207;SDS011;70114;47.690;8.898;2023-12-20T10:48:17;6.13;;;1.73;;
69207;SDS011;70114;47.690;8.898;2023-12-20T10:50:43;5.90;;;1.50;;
69207;SDS011;70114;47.690;8.898;2023-12-20T10:53:09;6.63;;;1.33;;
69207;SDS011;70114;47.690;8.898;2023-12-20T10:55:37;6.30;;;1.30;;
69207;SDS011;70114;47.690;8.898;2023-12-20T10:58:11;6.32;;;1.65;;
69207;SDS011;70114;47.690;8.898;2023-12-20T11:00:39;5.20;;;1.10;;
69207;SDS011;70114;47.690;8.898;2023-12-20T11:03:08;5.28;;;1.30;;
69207;SDS011;70114;47.690;8.898;2023-12-20T11:08:17;5.25;;;1.00;;
69207;SDS011;70114;47.690;8.898;2023-12-20T11:13:57;5.27;;;0.83;;
69207;SDS011;70114;47.690;8.898;2023-12-20T11:16:40;4.35;;;0.80;;
69207;SDS011;70114;47.690;8.898;2023-12-20T11:19:06;4.90;;;0.90;;
69207;SDS011;70114;47.690;8.898;2023-12-20T11:21:32;5.80;;;1.15;;
69207;SDS011;70114;47.690;8.898;2023-12-20T11:23:57;5.73;;;1.30;;
69207;SDS011;70114;47.690;8.898;2023-12-20T11:26:27;5.82;;;1.30;;
69207;SDS011;70114;47.690;8.898;2023-12-20T11:28:54;5.18;;;1.20;;
69207;SDS011;70114;47.690;8.898;2023-12-20T11:31:19;5.20;;;1.07;;
69207;SDS011;70114;47.690;8.898;2023-12-20T11:33:45;5.37;;;1.10;;
69207;SDS011;70114;47.690;8.898;2023-12-20T11:36:14;5.03;;;1.15;;
69207;SDS011;70114;47.690;8.898;2023-12-20T11:38:56;4.82;;;1.10;;
69207;SDS011;70114;47.690;8.898;2023-12-20T11:41:26;5.20;;;1.13;;
69207;SDS011;70114;47.690;8.898;2023-12-20T11:43:55;4.50;;;0.93;;
69207;SDS011;70114;47.690;8.898;2023-12-20T11:46:21;4.00;;;0.80;;
69207;SDS011;70114;47.690;8.898;2023-12-20T11:48:47;4.43;;;0.70;;
69207;SDS011;70114;47.690;8.898;2023-12-20T11:51:13;3.85;;;0.60;;
69207;SDS011;70114;47.690;8.898;2023-12-20T11:53:39;3.70;;;0.50;;
69207;SDS011;70114;47.690;8.898;2023-12-20T11:56:06;3.28;;;0.40;;
69207;SDS011;70114;47.690;8.898;2023-12-20T11:58:32;3.70;;;0.77;;
69207;SDS011;70114;47.690;8.898;2023-12-20T12:00:58;3.53;;;0.50;;
69207;SDS011;70114;47.690;8.898;2023-12-20T12:03:24;3.53;;;0.50;;
69207;SDS011;70114;47.690;8.898;2023-12-20T12:05:49;3.50;;;0.50;;
69207;SDS011;70114;47.690;8.898;2023-12-20T12:08:15;3.97;;;0.68;;
69207;SDS011;70114;47.690;8.898;2023-12-20T12:10:42;4.20;;;0.70;;
69207;SDS011;70114;47.690;8.898;2023-12-20T12:13:08;5.40;;;1.00;;
69207;SDS011;70114;47.690;8.898;2023-12-20T12:15:34;4.82;;;0.95;;
69207;SDS011;70114;47.690;8.898;2023-12-20T12:18:01;3.80;;;0.70;;
69207;SDS011;70114;47.690;8.898;2023-12-20T12:20:26;4.00;;;0.60;;
69207;SDS011;70114;47.690;8.898;2023-12-20T12:25:28;4.32;;;0.77;;
69207;SDS011;70114;47.690;8.898;2023-12-20T12:27:55;4.50;;;0.80;;
69207;SDS011;70114;47.690;8.898;2023-12-20T12:30:21;5.38;;;1.00;;
69207;SDS011;70114;47.690;8.898;2023-12-20T12:32:47;4.40;;;0.90;;
69207;SDS011;70114;47.690;8.898;2023-12-20T12:35:13;5.72;;;1.08;;
69207;SDS011;70114;47.690;8.898;2023-12-20T12:37:39;4.93;;;1.00;;
69207;SDS011;70114;47.690;8.898;2023-12-20T12:40:06;5.68;;;0.98;;
69207;SDS011;70114;47.690;8.898;2023-12-20T12:42:36;5.32;;;1.13;;
69207;SDS011;70114;47.690;8.898;2023-12-20T12:45:02;5.30;;;0.90;;
69207;SDS011;70114;47.690;8.898;2023-12-20T12:47:27;6.15;;;1.10;;
69207;SDS011;70114;47.690;8.898;2023-12-20T12:49:53;4.53;;;0.90;;
69207;SDS011;70114;47.690;8.898;2023-12-20T12:52:19;6.17;;;0.97;;
69207;SDS011;70114;47.690;8.898;2023-12-20T12:54:45;5.47;;;0.93;;
69207;SDS011;70114;47.690;8.898;2023-12-20T12:57:10;5.37;;;1.10;;
69207;SDS011;70114;47.690;8.898;2023-12-20T12:59:36;5.47;;;0.90;;
69207;SDS011;70114;47.690;8.898;2023-12-20T13:02:02;5.33;;;0.97;;
69207;SDS011;70114;47.690;8.898;2023-12-20T13:04:27;5.80;;;0.95;;
69207;SDS011;70114;47.690;8.898;2023-12-20T13:06:52;6.23;;;0.93;;
69207;SDS011;70114;47.690;8.898;2023-12-20T13:09:18;6.60;;;1.07;;
69207;SDS011;70114;47.690;8.898;2023-12-20T13:11:44;7.97;;;1.63;;
69207;SDS011;70114;47.690;8.898;2023-12-20T13:14:09;4.67;;;0.80;;
69207;SDS011;70114;47.690;8.898;2023-12-20T13:16:40;4.15;;;0.70;;
69207;SDS011;70114;47.690;8.898;2023-12-20T13:19:05;5.07;;;0.77;;
69207;SDS011;70114;47.690;8.898;2023-12-20T13:21:31;3.73;;;0.50;;
69207;SDS011;70114;47.690;8.898;2023-12-20T13:23:56;4.00;;;0.45;;
69207;SDS011;70114;47.690;8.898;2023-12-20T13:26:22;4.80;;;0.60;;
69207;SDS011;70114;47.690;8.898;2023-12-20T13:28:47;3.73;;;0.50;;
69207;SDS011;70114;47.690;8.898;2023-12-20T13:31:12;2.83;;;0.40;;
69207;SDS011;70114;47.690;8.898;2023-12-20T13:33:38;3.67;;;0.47;;
69207;SDS011;70114;47.690;8.898;2023-12-20T13:36:04;3.70;;;0.40;;
69207;SDS011;70114;47.690;8.898;2023-12-20T13:38:30;3.65;;;0.50;;
69207;SDS011;70114;47.690;8.898;2023-12-20T13:40:55;3.80;;;0.53;;
69207;SDS011;70114;47.690;8.898;2023-12-20T13:43:23;4.50;;;0.40;;
69207;SDS011;70114;47.690;8.898;2023-12-20T13:45:49;3.42;;;0.32;;
69207;SDS011;70114;47.690;8.898;2023-12-20T13:48:15;2.80;;;0.30;;
69207;SDS011;70114;47.690;8.898;2023-12-20T13:50:40;3.78;;;0.50;;
69207;SDS011;70114;47.690;8.898;2023-12-20T13:53:06;4.30;;;1.00;;
69207;SDS011;70114;47.690;8.898;2023-12-20T13:55:31;4.33;;;0.80;;
69207;SDS011;70114;47.690;8.898;2023-12-20T13:57:56;4.07;;;0.57;;
69207;SDS011;70114;47.690;8.898;2023-12-20T14:00:22;3.03;;;0.40;;
69207;SDS011;70114;47.690;8.898;2023-12-20T14:02:48;2.83;;;0.30;;
69207;SDS011;70114;47.690;8.898;2023-12-20T14:05:14;4.50;;;0.63;;
69207;SDS011;70114;47.690;8.898;2023-12-20T14:07:45;4.13;;;0.50;;
69207;SDS011;70114;47.690;8.898;2023-12-20T14:10:11;4.10;;;0.68;;
69207;SDS011;70114;47.690;8.898;2023-12-20T14:12:38;4.15;;;0.60;;
69207;SDS011;70114;47.690;8.898;2023-12-20T14:15:04;4.30;;;0.60;;
69207;SDS011;70114;47.690;8.898;2023-12-20T14:17:34;4.72;;;0.93;;
69207;SDS011;70114;47.690;8.898;2023-12-20T14:19:59;5.53;;;1.10;;
69207;SDS011;70114;47.690;8.898;2023-12-20T14:22:25;4.40;;;0.60;;
69207;SDS011;70114;47.690;8.898;2023-12-20T14:24:50;4.23;;;0.67;;
69207;SDS011;70114;47.690;8.898;2023-12-20T14:27:16;5.17;;;1.00;;
69207;SDS011;70114;47.690;8.898;2023-12-20T14:29:41;4.70;;;0.80;;
69207;SDS011;70114;47.690;8.898;2023-12-20T14:32:07;4.10;;;0.60;;
69207;SDS011;70114;47.690;8.898;2023-12-20T14:34:32;5.57;;;0.90;;
69207;SDS011;70114;47.690;8.898;2023-12-20T14:36:57;5.00;;;0.77;;
69207;SDS011;70114;47.690;8.898;2023-12-20T14:39:23;5.63;;;0.80;;
69207;SDS011;70114;47.690;8.898;2023-12-20T14:41:48;4.40;;;0.73;;
69207;SDS011;70114;47.690;8.898;2023-12-20T14:44:14;5.07;;;1.00;;